createdAt,value
2018-03-22T00:00:28.723Z,1019.87
2018-03-22T00:01:28.676Z,1019.87
2018-03-22T00:02:28.625Z,1019.82
2018-03-22T00:03:28.580Z,1019.83
2018-03-22T00:04:28.530Z,1019.80
2018-03-22T00:05:28.482Z,1019.85
2018-03-22T00:06:28.434Z,1019.84
2018-03-22T00:07:28.387Z,1019.77
2018-03-22T00:08:28.339Z,1019.80
2018-03-22T00:09:28.291Z,1019.72
2018-03-22T00:10:28.248Z,1019.67
2018-03-22T00:11:28.196Z,1019.66
2018-03-22T00:12:28.147Z,1019.56
2018-03-22T00:13:28.097Z,1019.52
2018-03-22T00:14:28.052Z,1019.54
2018-03-22T00:15:28.008Z,1019.58
2018-03-22T00:16:27.957Z,1019.55
2018-03-22T00:17:27.908Z,1019.56
2018-03-22T00:18:27.862Z,1019.58
2018-03-22T00:19:27.814Z,1019.56
2018-03-22T00:20:27.769Z,1019.56
2018-03-22T00:21:27.719Z,1019.50
2018-03-22T00:22:27.665Z,1019.53
2018-03-22T00:23:27.619Z,1019.43
2018-03-22T00:24:27.571Z,1019.41
2018-03-22T00:25:27.528Z,1019.38
2018-03-22T00:26:27.476Z,1019.34
2018-03-22T00:27:27.428Z,1019.35
2018-03-22T00:28:27.383Z,1019.37
2018-03-22T00:29:27.337Z,1019.36
2018-03-22T00:30:27.285Z,1019.32
2018-03-22T00:31:27.237Z,1019.31
2018-03-22T00:32:27.187Z,1019.27
2018-03-22T00:33:27.138Z,1019.25
2018-03-22T00:34:27.090Z,1019.24
2018-03-22T00:35:27.048Z,1019.25
2018-03-22T00:36:26.994Z,1019.24
2018-03-22T00:37:26.946Z,1019.24
2018-03-22T00:38:26.898Z,1019.22
2018-03-22T00:39:26.850Z,1019.19
2018-03-22T00:40:26.803Z,1019.16
2018-03-22T00:41:26.755Z,1019.19
2018-03-22T00:42:26.705Z,1019.18
2018-03-22T00:43:26.661Z,1019.13
2018-03-22T00:44:26.609Z,1019.12
2018-03-22T00:45:26.563Z,1019.11
2018-03-22T00:46:26.516Z,1019.03
2018-03-22T00:47:26.467Z,1019.06
2018-03-22T00:48:26.428Z,1019.01
2018-03-22T00:49:26.371Z,1018.98
2018-03-22T00:50:26.324Z,1018.99
2018-03-22T00:51:26.274Z,1018.92
2018-03-22T00:52:26.234Z,1018.90
2018-03-22T00:53:26.179Z,1018.89
2018-03-22T00:54:26.132Z,1018.88
2018-03-22T00:55:26.085Z,1018.83
2018-03-22T00:56:26.038Z,1018.80
2018-03-22T00:57:25.990Z,1018.80
2018-03-22T00:58:25.942Z,1018.81
2018-03-22T00:59:25.892Z,1018.75
2018-03-22T01:00:25.844Z,1018.71
2018-03-22T01:01:25.795Z,1018.70
2018-03-22T01:02:25.748Z,1018.67
2018-03-22T01:03:25.699Z,1018.66
2018-03-22T01:04:25.715Z,1018.64
2018-03-22T01:05:25.605Z,1018.64
2018-03-22T01:06:25.560Z,1018.65
2018-03-22T01:07:25.526Z,1018.57
2018-03-22T01:08:25.460Z,1018.57
2018-03-22T01:09:25.414Z,1018.51
2018-03-22T01:10:25.367Z,1018.50
2018-03-22T01:11:25.320Z,1018.46
2018-03-22T01:12:25.273Z,1018.44
2018-03-22T01:13:25.224Z,1018.41
2018-03-22T01:14:25.173Z,1018.41
2018-03-22T01:15:25.132Z,1018.37
2018-03-22T01:16:25.083Z,1018.35
2018-03-22T01:17:25.029Z,1018.35
2018-03-22T01:18:24.983Z,1018.33
2018-03-22T01:19:24.938Z,1018.29
2018-03-22T01:20:24.886Z,1018.30
2018-03-22T01:21:24.840Z,1018.28
2018-03-22T01:22:24.790Z,1018.26
2018-03-22T01:23:24.769Z,1018.24
2018-03-22T01:24:24.695Z,1018.20
2018-03-22T01:25:24.651Z,1018.17
2018-03-22T01:26:24.611Z,1018.17
2018-03-22T01:27:24.550Z,1018.14
2018-03-22T01:28:24.504Z,1018.18
2018-03-22T01:29:24.459Z,1018.08
2018-03-22T01:30:24.407Z,1018.10
2018-03-22T01:31:24.358Z,1018.06
2018-03-22T01:32:24.361Z,1018.04
2018-03-22T01:33:24.267Z,1018.03
2018-03-22T01:34:24.213Z,1017.99
2018-03-22T01:35:24.167Z,1018.00
2018-03-22T01:36:24.118Z,1017.97
2018-03-22T01:37:24.078Z,1017.97
2018-03-22T01:38:24.041Z,1017.94
2018-03-22T01:39:23.978Z,1017.93
2018-03-22T01:40:23.929Z,1017.93
2018-03-22T01:41:23.879Z,1017.84
2018-03-22T01:42:23.832Z,1017.87
2018-03-22T01:43:23.784Z,1017.77
2018-03-22T01:44:23.737Z,1017.77
2018-03-22T01:45:23.688Z,1017.69
2018-03-22T01:46:23.640Z,1017.69
2018-03-22T01:47:23.595Z,1017.64
2018-03-22T01:48:23.544Z,1017.60
2018-03-22T01:49:23.496Z,1017.52
2018-03-22T01:50:23.450Z,1017.56
2018-03-22T01:51:23.403Z,1017.55
2018-03-22T01:52:23.352Z,1017.51
2018-03-22T01:53:23.304Z,1017.52
2018-03-22T01:54:23.260Z,1017.42
2018-03-22T01:55:23.216Z,1017.38
2018-03-22T01:56:23.166Z,1017.39
2018-03-22T01:57:23.113Z,1017.46
2018-03-22T01:58:23.064Z,1017.40
2018-03-22T01:59:23.018Z,1017.39
2018-03-22T02:00:22.971Z,1017.38
2018-03-22T02:01:22.923Z,1017.39
2018-03-22T02:02:22.873Z,1017.37
2018-03-22T02:03:22.829Z,1017.36
2018-03-22T02:04:22.776Z,1017.35
2018-03-22T02:05:22.732Z,1017.42
2018-03-22T02:06:22.680Z,1017.33
2018-03-22T02:07:22.634Z,1017.24
2018-03-22T02:08:22.598Z,1017.18
2018-03-22T03:25:18.897Z,1016.20
2018-03-22T03:26:18.844Z,1016.14
2018-03-22T03:27:18.797Z,1016.16
2018-03-22T03:28:18.747Z,1016.11
2018-03-22T03:29:18.701Z,1016.04
2018-03-22T03:30:18.729Z,1016.05
2018-03-22T03:31:18.605Z,1016.02
2018-03-22T03:32:18.557Z,1015.98
2018-03-22T03:33:18.508Z,1015.98
2018-03-22T03:34:18.464Z,1016.00
2018-03-22T03:35:18.413Z,1015.96
2018-03-22T03:36:18.367Z,1015.92
2018-03-22T03:37:18.317Z,1015.89
2018-03-22T03:38:18.274Z,1015.90
2018-03-22T03:39:18.230Z,1015.81
2018-03-22T03:40:18.180Z,1015.83
2018-03-22T03:41:18.132Z,1015.86
2018-03-22T03:42:18.079Z,1015.83
2018-03-22T03:43:18.033Z,1015.84
2018-03-22T03:44:17.981Z,1015.78
2018-03-22T03:45:17.934Z,1015.79
2018-03-22T03:46:17.886Z,1015.73
2018-03-22T03:47:17.843Z,1015.72
2018-03-22T03:48:17.847Z,1015.68
2018-03-22T03:49:17.741Z,1015.67
2018-03-22T03:50:17.698Z,1015.67
2018-03-22T03:51:17.645Z,1015.63
2018-03-22T03:52:17.601Z,1015.65
2018-03-22T03:53:17.550Z,1015.62
2018-03-22T03:54:17.505Z,1015.58
2018-03-22T03:55:17.459Z,1015.60
2018-03-22T03:56:17.408Z,1015.60
2018-03-22T03:57:17.361Z,1015.59
2018-03-22T03:58:17.312Z,1015.53
2018-03-22T03:59:17.265Z,1015.48
2018-03-22T04:00:17.216Z,1015.41
2018-03-22T04:01:17.167Z,1015.41
2018-03-22T04:02:17.119Z,1015.40
2018-03-22T04:03:17.076Z,1015.42
2018-03-22T04:04:17.028Z,1015.45
2018-03-22T04:05:16.977Z,1015.45
2018-03-22T04:06:16.933Z,1015.32
2018-03-22T04:07:16.882Z,1015.23
2018-03-22T04:08:16.833Z,1015.22
2018-03-22T04:09:16.785Z,1015.18
2018-03-22T04:10:16.736Z,1015.20
2018-03-22T04:11:16.690Z,1015.31
2018-03-22T04:12:16.638Z,1015.25
2018-03-22T04:13:16.591Z,1015.17
2018-03-22T04:14:16.543Z,1015.17
2018-03-22T04:15:16.496Z,1015.19
2018-03-22T04:16:16.451Z,1015.24
2018-03-22T04:17:16.402Z,1015.16
2018-03-22T04:18:16.350Z,1015.16
2018-03-22T04:19:16.306Z,1015.16
2018-03-22T04:20:16.260Z,1015.25
2018-03-22T04:21:16.207Z,1015.16
2018-03-22T04:22:16.161Z,1015.16
2018-03-22T04:23:16.112Z,1015.09
2018-03-22T04:24:16.068Z,1015.14
2018-03-22T04:25:16.018Z,1015.14
2018-03-22T04:26:15.971Z,1015.13
2018-03-22T04:27:15.921Z,1015.16
2018-03-22T04:28:15.872Z,1015.14
2018-03-22T04:29:15.823Z,1015.09
2018-03-22T04:30:15.775Z,1015.09
2018-03-22T04:31:15.727Z,1015.14
2018-03-22T04:32:15.679Z,1015.11
2018-03-22T04:33:15.636Z,1015.07
2018-03-22T04:34:15.585Z,1015.10
2018-03-22T04:35:15.540Z,1015.04
2018-03-22T04:36:15.488Z,1014.98
2018-03-22T04:37:15.439Z,1014.94
2018-03-22T04:38:15.397Z,1014.90
2018-03-22T04:39:15.345Z,1014.90
2018-03-22T04:40:15.303Z,1014.93
2018-03-22T04:41:15.246Z,1014.88
2018-03-22T04:42:15.203Z,1014.85
2018-03-22T04:43:15.152Z,1014.83
2018-03-22T04:44:15.109Z,1014.89
2018-03-22T04:45:15.058Z,1014.84
2018-03-22T04:46:15.009Z,1014.84
2018-03-22T04:47:14.967Z,1014.86
2018-03-22T04:48:14.914Z,1014.91
2018-03-22T04:49:14.864Z,1014.84
2018-03-22T04:50:14.815Z,1014.84
2018-03-22T04:51:14.773Z,1014.82
2018-03-22T04:52:14.727Z,1014.83
2018-03-22T04:53:14.675Z,1014.76
2018-03-22T04:54:14.626Z,1014.68
2018-03-22T04:55:14.578Z,1014.65
2018-03-22T04:56:14.538Z,1014.63
2018-03-22T04:57:14.479Z,1014.59
2018-03-22T04:58:14.433Z,1014.57
2018-03-22T04:59:14.432Z,1014.57
2018-03-22T05:00:14.340Z,1014.53
2018-03-22T05:01:14.288Z,1014.51
2018-03-22T05:02:14.240Z,1014.51
2018-03-22T05:03:14.192Z,1014.42
2018-03-22T05:04:14.146Z,1014.42
2018-03-22T05:05:14.101Z,1014.35
2018-03-22T05:06:14.050Z,1014.31
2018-03-22T05:07:14.008Z,1014.30
2018-03-22T05:08:13.954Z,1014.35
2018-03-22T05:09:13.963Z,1014.30
2018-03-22T05:10:13.864Z,1014.32
2018-03-22T05:11:13.811Z,1014.28
2018-03-22T05:12:13.764Z,1014.28
2018-03-22T05:13:13.718Z,1014.36
2018-03-22T05:14:13.673Z,1014.31
2018-03-22T05:15:13.626Z,1014.34
2018-03-22T05:16:13.568Z,1014.36
2018-03-22T05:17:13.528Z,1014.33
2018-03-22T05:18:13.473Z,1014.27
2018-03-22T05:19:13.433Z,1014.31
2018-03-22T05:20:13.383Z,1014.36
2018-03-22T05:21:13.328Z,1014.40
2018-03-22T05:22:13.280Z,1014.35
2018-03-22T05:23:13.233Z,1014.27
2018-03-22T05:24:13.184Z,1014.27
2018-03-22T05:25:13.139Z,1014.31
2018-03-22T05:26:13.088Z,1014.30
2018-03-22T05:27:13.044Z,1014.37
2018-03-22T05:28:12.992Z,1014.34
2018-03-22T05:29:12.965Z,1014.29
2018-03-22T05:30:12.898Z,1014.28
2018-03-22T05:31:12.859Z,1014.26
2018-03-22T05:32:12.799Z,1014.24
2018-03-22T05:33:12.752Z,1014.27
2018-03-22T05:34:12.715Z,1014.24
2018-03-22T05:35:12.665Z,1014.20
2018-03-22T05:36:12.619Z,1014.23
2018-03-22T05:37:12.566Z,1014.23
2018-03-22T05:38:12.510Z,1014.20
2018-03-22T05:39:12.462Z,1014.20
2018-03-22T05:40:12.417Z,1014.16
2018-03-22T05:41:12.368Z,1014.16
2018-03-22T05:42:12.318Z,1014.15
2018-03-22T05:43:12.271Z,1014.11
2018-03-22T05:44:12.226Z,1014.08
2018-03-22T05:45:12.172Z,1014.09
2018-03-22T05:46:12.130Z,1014.10
2018-03-22T05:47:12.086Z,1014.14
2018-03-22T05:48:12.029Z,1014.12
2018-03-22T05:49:11.982Z,1014.16
2018-03-22T05:50:11.933Z,1014.19
2018-03-22T05:51:11.893Z,1014.15
2018-03-22T05:52:11.837Z,1014.22
2018-03-22T05:53:11.796Z,1014.23
2018-03-22T05:54:11.740Z,1014.19
2018-03-22T05:55:11.694Z,1014.22
2018-03-22T05:56:11.643Z,1014.19
2018-03-22T05:57:11.600Z,1014.24
2018-03-22T05:58:11.547Z,1014.19
2018-03-22T05:59:11.497Z,1014.15
2018-03-22T06:00:11.450Z,1014.15
2018-03-22T06:01:11.407Z,1014.15
2018-03-22T06:02:11.355Z,1014.14
2018-03-22T06:03:11.357Z,1014.05
2018-03-22T06:04:11.260Z,1014.05
2018-03-22T06:05:11.209Z,1014.02
2018-03-22T06:06:11.159Z,1014.08
2018-03-22T06:07:11.112Z,1014.02
2018-03-22T06:08:11.062Z,1013.95
2018-03-22T06:09:11.023Z,1013.94
2018-03-22T06:10:10.968Z,1013.92
2018-03-22T06:11:10.940Z,1013.87
2018-03-22T06:12:10.872Z,1013.90
2018-03-22T06:13:10.822Z,1013.91
2018-03-22T06:14:10.781Z,1013.94
2018-03-22T06:15:10.727Z,1013.89
2018-03-22T06:16:10.680Z,1013.94
2018-03-22T06:17:10.634Z,1013.90
2018-03-22T06:18:10.582Z,1013.91
2018-03-22T06:19:10.531Z,1013.90
2018-03-22T06:20:10.482Z,1013.88
2018-03-22T06:21:10.433Z,1013.94
2018-03-22T06:22:10.385Z,1013.92
2018-03-22T06:23:10.337Z,1013.95
2018-03-22T06:24:10.293Z,1013.94
2018-03-22T06:25:10.289Z,1013.97
2018-03-22T06:26:10.246Z,1013.94
2018-03-22T06:27:10.151Z,1013.98
2018-03-22T06:28:10.099Z,1013.97
2018-03-22T06:29:10.048Z,1013.95
2018-03-22T06:30:10.003Z,1013.96
2018-03-22T06:31:09.954Z,1013.94
2018-03-22T06:32:09.904Z,1013.92
2018-03-22T06:33:09.853Z,1013.85
2018-03-22T06:34:09.805Z,1013.86
2018-03-22T06:35:09.762Z,1013.83
2018-03-22T06:36:09.711Z,1013.86
2018-03-22T06:37:09.663Z,1013.75
2018-03-22T06:38:09.613Z,1013.70
2018-03-22T06:39:09.565Z,1013.69
2018-03-22T06:40:09.568Z,1013.67
2018-03-22T06:41:09.466Z,1013.66
2018-03-22T06:42:09.419Z,1013.65
2018-03-22T06:43:09.369Z,1013.58
2018-03-22T06:44:09.323Z,1013.62
2018-03-22T06:45:09.271Z,1013.58
2018-03-22T06:46:09.231Z,1013.59
2018-03-22T06:47:09.175Z,1013.63
2018-03-22T06:48:09.131Z,1013.55
2018-03-22T06:49:09.081Z,1013.54
2018-03-22T06:50:09.034Z,1013.55
2018-03-22T06:51:08.989Z,1013.56
2018-03-22T06:52:08.938Z,1013.41
2018-03-22T06:53:08.932Z,1013.53
2018-03-22T06:54:08.849Z,1013.49
2018-03-22T06:55:08.809Z,1013.42
2018-03-22T06:56:08.744Z,1013.39
2018-03-22T06:57:08.691Z,1013.39
2018-03-22T06:58:08.644Z,1013.40
2018-03-22T06:59:08.595Z,1013.37
2018-03-22T07:00:08.546Z,1013.39
2018-03-22T07:01:08.501Z,1013.35
2018-03-22T07:02:08.454Z,1013.29
2018-03-22T07:04:08.354Z,1013.28
2018-03-22T07:05:08.307Z,1013.28
2018-03-22T07:06:08.254Z,1013.31
2018-03-22T07:07:08.209Z,1013.26
2018-03-22T07:08:08.162Z,1013.33
2018-03-22T07:09:08.111Z,1013.20
2018-03-22T07:10:08.062Z,1013.27
2018-03-22T07:11:08.015Z,1013.27
2018-03-22T07:12:07.966Z,1013.24
2018-03-22T07:13:07.915Z,1013.24
2018-03-22T07:14:07.867Z,1013.28
2018-03-22T07:15:07.820Z,1013.29
2018-03-22T07:16:07.773Z,1013.23
2018-03-22T07:17:07.724Z,1013.20
2018-03-22T07:18:07.674Z,1013.19
2018-03-22T07:19:07.625Z,1013.20
2018-03-22T07:20:07.578Z,1013.20
2018-03-22T07:21:07.531Z,1013.18
2018-03-22T07:22:07.479Z,1013.20
2018-03-22T07:23:07.441Z,1013.16
2018-03-22T07:24:07.383Z,1013.14
2018-03-22T07:25:07.352Z,1013.18
2018-03-22T07:26:07.286Z,1013.20
2018-03-22T07:27:07.237Z,1013.15
2018-03-22T07:28:07.194Z,1013.08
2018-03-22T07:29:07.149Z,1013.08
2018-03-22T07:30:07.094Z,1013.14
2018-03-22T07:31:07.046Z,1013.09
2018-03-22T07:32:06.997Z,1013.16
2018-03-22T07:33:06.947Z,1013.08
2018-03-22T07:34:06.898Z,1013.12
2018-03-22T07:35:06.851Z,1013.16
2018-03-22T07:36:06.802Z,1013.06
2018-03-22T07:37:06.751Z,1013.03
2018-03-22T07:38:06.705Z,1013.13
2018-03-22T07:39:06.657Z,1013.12
2018-03-22T07:40:06.609Z,1013.05
2018-03-22T07:41:06.557Z,1013.03
2018-03-22T07:42:06.514Z,1013.09
2018-03-22T07:43:06.466Z,1013.12
2018-03-22T07:44:06.414Z,1013.16
2018-03-22T07:45:06.375Z,1013.14
2018-03-22T07:46:06.317Z,1013.12
2018-03-22T07:47:06.278Z,1013.11
2018-03-22T07:48:06.220Z,1013.08
2018-03-22T07:49:06.171Z,1013.06
2018-03-22T07:50:06.124Z,1013.03
2018-03-22T07:51:06.073Z,1013.08
2018-03-22T07:52:06.027Z,1013.01
2018-03-22T07:53:06.028Z,1013.05
2018-03-22T07:54:05.930Z,1013.02
2018-03-22T07:55:05.880Z,1013.01
2018-03-22T07:56:05.835Z,1012.99
2018-03-22T07:57:05.791Z,1012.97
2018-03-22T07:58:05.735Z,1012.94
2018-03-22T07:59:05.691Z,1012.94
2018-03-22T08:00:05.640Z,1012.96
2018-03-22T08:01:05.590Z,1012.92
2018-03-22T08:02:05.542Z,1012.89
2018-03-22T08:03:05.494Z,1012.90
2018-03-22T08:04:05.447Z,1012.92
2018-03-22T08:05:05.399Z,1012.94
2018-03-22T08:06:05.348Z,1012.92
2018-03-22T08:07:05.299Z,1012.92
2018-03-22T08:08:05.251Z,1012.96
2018-03-22T08:09:05.203Z,1012.88
2018-03-22T08:10:05.157Z,1012.89
2018-03-22T08:11:05.108Z,1012.96
2018-03-22T08:12:05.058Z,1012.87
2018-03-22T08:13:05.019Z,1012.80
2018-03-22T08:14:04.964Z,1012.77
2018-03-22T08:15:04.915Z,1012.82
2018-03-22T08:16:04.865Z,1012.77
2018-03-22T08:17:04.816Z,1012.75
2018-03-22T08:18:04.771Z,1012.73
2018-03-22T08:19:04.723Z,1012.72
2018-03-22T08:20:04.680Z,1012.75
2018-03-22T08:21:04.630Z,1012.71
2018-03-22T08:22:04.587Z,1012.64
2018-03-22T08:23:04.530Z,1012.67
2018-03-22T08:24:04.482Z,1012.66
2018-03-22T08:25:04.435Z,1012.66
2018-03-22T08:26:04.385Z,1012.62
2018-03-22T08:27:04.373Z,1012.64
2018-03-22T08:28:04.286Z,1012.59
2018-03-22T08:29:04.246Z,1012.57
2018-03-22T08:30:04.192Z,1012.59
2018-03-22T08:31:04.148Z,1012.56
2018-03-22T08:32:04.094Z,1012.58
2018-03-22T08:33:04.051Z,1012.59
2018-03-22T08:34:03.996Z,1012.57
2018-03-22T08:35:04.008Z,1012.57
2018-03-22T08:36:03.901Z,1012.57
2018-03-22T08:37:03.852Z,1012.52
2018-03-22T08:38:03.804Z,1012.51
2018-03-22T08:39:03.756Z,1012.46
2018-03-22T08:40:03.710Z,1012.51
2018-03-22T08:41:03.664Z,1012.48
2018-03-22T08:42:03.612Z,1012.47
2018-03-22T08:43:03.563Z,1012.43
2018-03-22T08:44:03.516Z,1012.47
2018-03-22T08:45:03.469Z,1012.42
2018-03-22T08:46:03.422Z,1012.45
2018-03-22T08:47:03.385Z,1012.40
2018-03-22T08:48:03.328Z,1012.36
2018-03-22T08:49:03.277Z,1012.34
2018-03-22T08:50:03.228Z,1012.33
2018-03-22T08:51:03.184Z,1012.31
2018-03-22T08:52:03.134Z,1012.32
2018-03-22T08:53:03.082Z,1012.37
2018-03-22T08:54:03.035Z,1012.37
2018-03-22T08:55:02.990Z,1012.34
2018-03-22T08:56:02.947Z,1012.48
2018-03-22T08:57:02.897Z,1012.32
2018-03-22T08:58:02.845Z,1012.31
2018-03-22T08:59:02.799Z,1012.29
2018-03-22T09:00:02.746Z,1012.27
2018-03-22T09:01:02.702Z,1012.19
2018-03-22T09:02:02.674Z,1012.21
2018-03-22T09:03:02.606Z,1012.17
2018-03-22T09:04:02.619Z,1012.14
2018-03-22T09:05:02.518Z,1012.17
2018-03-22T09:06:02.458Z,1012.12
2018-03-22T09:07:02.410Z,1012.17
2018-03-22T09:08:02.364Z,1012.22
2018-03-22T09:09:02.318Z,1012.22
2018-03-22T09:10:02.267Z,1012.20
2018-03-22T09:11:02.221Z,1012.16
2018-03-22T09:12:02.172Z,1012.12
2018-03-22T09:13:02.125Z,1012.13
2018-03-22T09:14:02.076Z,1012.07
2018-03-22T09:15:02.027Z,1012.05
2018-03-22T09:16:01.982Z,1012.05
2018-03-22T09:17:01.940Z,1012.08
2018-03-22T09:18:01.882Z,1012.10
2018-03-22T09:19:01.834Z,1012.05
2018-03-22T09:20:01.800Z,1012.13
2018-03-22T09:21:01.739Z,1012.05
2018-03-22T09:22:01.690Z,1012.06
2018-03-22T09:23:01.644Z,1012.11
2018-03-22T09:24:01.596Z,1012.10
2018-03-22T09:25:01.548Z,1012.09
2018-03-22T09:26:01.512Z,1012.16
2018-03-22T09:27:01.455Z,1012.11
2018-03-22T09:28:01.405Z,1012.11
2018-03-22T09:29:01.360Z,1012.07
2018-03-22T09:30:01.310Z,1012.09
2018-03-22T09:31:01.268Z,1012.15
2018-03-22T09:32:01.215Z,1012.17
2018-03-22T09:33:01.165Z,1012.21
2018-03-22T09:34:01.120Z,1012.18
2018-03-22T09:35:01.070Z,1012.17
2018-03-22T09:36:01.024Z,1012.09
2018-03-22T09:37:00.973Z,1012.11
2018-03-22T09:38:00.927Z,1012.13
2018-03-22T09:39:00.878Z,1012.10
2018-03-22T09:40:00.830Z,1012.10
2018-03-22T09:41:00.784Z,1012.12
2018-03-22T09:42:00.737Z,1012.11
2018-03-22T09:43:00.689Z,1012.07
2018-03-22T09:44:00.676Z,1012.08
2018-03-22T09:45:00.592Z,1012.05
2018-03-22T09:46:00.545Z,1012.04
2018-03-22T09:47:00.501Z,1012.01
2018-03-22T09:48:00.449Z,1012.09
2018-03-22T09:49:00.412Z,1012.04
2018-03-22T09:50:00.354Z,1012.00
2018-03-22T09:51:00.311Z,1011.99
2018-03-22T09:52:00.259Z,1012.02
2018-03-22T09:53:00.211Z,1012.01
2018-03-22T09:54:00.168Z,1011.94
2018-03-22T09:55:00.120Z,1011.94
2018-03-22T09:56:00.069Z,1011.91
2018-03-22T09:57:00.026Z,1011.93
2018-03-22T09:57:59.972Z,1011.88
2018-03-22T09:58:59.927Z,1011.88
2018-03-22T09:59:59.881Z,1011.90
2018-03-22T10:00:59.836Z,1011.89
2018-03-22T10:01:59.784Z,1011.90
2018-03-22T10:02:59.742Z,1011.88
2018-03-22T10:03:59.691Z,1011.94
2018-03-22T10:04:59.644Z,1011.88
2018-03-22T10:05:59.593Z,1011.84
2018-03-22T10:06:59.546Z,1011.92
2018-03-22T10:07:59.498Z,1011.87
2018-03-22T10:08:59.453Z,1011.87
2018-03-22T10:09:59.404Z,1011.90
2018-03-22T10:10:59.356Z,1011.86
2018-03-22T10:11:59.310Z,1011.91
2018-03-22T10:12:59.261Z,1011.91
2018-03-22T10:13:59.216Z,1011.96
2018-03-22T10:14:59.170Z,1011.94
2018-03-22T10:15:59.120Z,1011.95
2018-03-22T10:16:59.074Z,1011.96
2018-03-22T10:17:59.027Z,1011.92
2018-03-22T10:18:58.978Z,1011.97
2018-03-22T10:19:58.932Z,1011.90
2018-03-22T10:20:58.884Z,1011.93
2018-03-22T10:21:58.836Z,1011.94
2018-03-22T10:22:58.789Z,1011.93
2018-03-22T10:23:58.740Z,1011.99
2018-03-22T10:24:58.695Z,1011.96
2018-03-22T10:25:58.646Z,1011.88
2018-03-22T10:26:58.602Z,1011.93
2018-03-22T10:27:58.558Z,1011.92
2018-03-22T10:28:58.504Z,1011.83
2018-03-22T10:29:58.457Z,1011.86
2018-03-22T10:30:58.410Z,1011.78
2018-03-22T10:31:58.364Z,1011.78
2018-03-22T10:32:58.316Z,1011.78
2018-03-22T10:33:58.269Z,1011.75
2018-03-22T10:34:58.221Z,1011.75
2018-03-22T10:35:58.215Z,1011.73
2018-03-22T10:36:58.127Z,1011.74
2018-03-22T10:37:58.082Z,1011.76
2018-03-22T10:38:58.035Z,1011.72
2018-03-22T10:39:57.992Z,1011.69
2018-03-22T10:40:57.938Z,1011.68
2018-03-22T10:41:57.905Z,1011.68
2018-03-22T10:42:57.847Z,1011.64
2018-03-22T10:43:57.798Z,1011.62
2018-03-22T10:44:57.750Z,1011.66
2018-03-22T10:45:57.706Z,1011.63
2018-03-22T10:46:57.657Z,1011.58
2018-03-22T10:47:57.610Z,1011.63
2018-03-22T10:48:57.561Z,1011.65
2018-03-22T10:49:57.518Z,1011.61
2018-03-22T10:50:57.467Z,1011.59
2018-03-22T10:51:57.422Z,1011.56
2018-03-22T10:52:57.372Z,1011.57
2018-03-22T10:53:57.330Z,1011.52
2018-03-22T10:54:57.281Z,1011.54
2018-03-22T10:55:57.237Z,1011.56
2018-03-22T10:56:57.186Z,1011.50
2018-03-22T10:57:57.142Z,1011.47
2018-03-22T10:58:57.093Z,1011.45
2018-03-22T10:59:57.045Z,1011.36
2018-03-22T11:00:56.996Z,1011.41
2018-03-22T11:01:56.959Z,1011.40
2018-03-22T11:02:56.904Z,1011.39
2018-03-22T11:03:56.858Z,1011.37
2018-03-22T11:04:56.814Z,1011.35
2018-03-22T11:05:56.764Z,1011.38
2018-03-22T11:06:56.716Z,1011.35
2018-03-22T11:07:56.670Z,1011.33
2018-03-22T11:08:56.623Z,1011.31
2018-03-22T11:09:56.584Z,1011.29
2018-03-22T11:10:56.535Z,1011.23
2018-03-22T11:11:56.487Z,1011.22
2018-03-22T11:12:56.434Z,1011.22
2018-03-22T11:13:56.387Z,1011.23
2018-03-22T11:14:56.340Z,1011.26
2018-03-22T11:15:56.295Z,1011.26
2018-03-22T11:16:56.246Z,1011.30
2018-03-22T11:17:56.200Z,1011.28
2018-03-22T11:18:56.157Z,1011.29
2018-03-22T11:19:56.108Z,1011.29
2018-03-22T11:20:56.058Z,1011.25
2018-03-22T11:21:56.022Z,1011.24
2018-03-22T11:22:55.969Z,1011.19
2018-03-22T11:23:55.919Z,1011.21
2018-03-22T11:24:55.874Z,1011.20
2018-03-22T11:25:55.830Z,1011.17
2018-03-22T11:26:55.781Z,1011.10
2018-03-22T11:27:55.732Z,1011.16
2018-03-22T11:28:55.686Z,1011.11
2018-03-22T11:29:55.641Z,1011.10
2018-03-22T11:30:55.593Z,1011.12
2018-03-22T11:31:55.546Z,1011.11
2018-03-22T11:32:55.499Z,1011.14
2018-03-22T11:33:55.453Z,1011.11
2018-03-22T11:34:55.409Z,1011.12
2018-03-22T11:35:55.361Z,1011.14
2018-03-22T11:36:55.316Z,1011.12
2018-03-22T11:37:55.271Z,1011.15
2018-03-22T11:38:55.228Z,1011.11
2018-03-22T11:39:55.177Z,1011.09
2018-03-22T11:40:55.127Z,1011.10
2018-03-22T11:41:55.082Z,1011.09
2018-03-22T11:42:55.040Z,1011.10
2018-03-22T11:43:54.990Z,1011.05
2018-03-22T11:44:54.943Z,1010.99
2018-03-22T11:45:54.897Z,1010.99
2018-03-22T11:46:54.855Z,1011.00
2018-03-22T11:47:54.807Z,1010.97
2018-03-22T11:48:54.758Z,1010.98
2018-03-22T11:49:54.710Z,1011.02
2018-03-22T11:50:54.662Z,1011.00
2018-03-22T11:51:54.620Z,1010.99
2018-03-22T11:52:54.571Z,1011.03
2018-03-22T11:53:54.579Z,1010.99
2018-03-22T11:54:54.482Z,1010.98
2018-03-22T11:55:54.431Z,1010.95
2018-03-22T11:56:54.393Z,1010.95
2018-03-22T11:57:54.337Z,1010.93
2018-03-22T11:58:54.295Z,1010.97
2018-03-22T11:59:54.246Z,1010.96
2018-03-22T12:00:54.200Z,1010.99
2018-03-22T12:01:54.162Z,1010.97
2018-03-22T12:02:54.106Z,1010.96
2018-03-22T12:03:54.058Z,1011.00
2018-03-22T12:04:54.018Z,1011.00
2018-03-22T12:05:53.974Z,1010.97
2018-03-22T12:06:53.921Z,1011.02
2018-03-22T12:07:53.877Z,1011.00
2018-03-22T12:08:53.827Z,1011.04
2018-03-22T12:09:53.782Z,1011.00
2018-03-22T12:10:53.736Z,1011.02
2018-03-22T12:11:53.690Z,1010.97
2018-03-22T12:12:53.644Z,1010.99
2018-03-22T12:13:53.599Z,1010.96
2018-03-22T12:14:53.552Z,1010.99
2018-03-22T12:15:53.506Z,1011.00
2018-03-22T12:16:53.460Z,1010.98
2018-03-22T12:17:53.412Z,1011.00
2018-03-22T12:18:53.365Z,1010.93
2018-03-22T12:19:53.319Z,1010.95
2018-03-22T12:20:53.273Z,1010.94
2018-03-22T12:21:53.234Z,1010.91
2018-03-22T12:22:53.182Z,1010.93
2018-03-22T12:23:53.137Z,1010.96
2018-03-22T12:24:53.090Z,1010.92
2018-03-22T12:25:53.051Z,1010.91
2018-03-22T12:26:53.001Z,1010.91
2018-03-22T12:27:52.953Z,1010.93
2018-03-22T12:28:52.908Z,1010.90
2018-03-22T12:29:52.862Z,1010.94
2018-03-22T12:30:52.815Z,1010.95
2018-03-22T12:31:52.771Z,1010.92
2018-03-22T12:32:52.725Z,1010.90
2018-03-22T12:33:52.684Z,1010.92
2018-03-22T12:34:52.638Z,1010.92
2018-03-22T12:35:52.592Z,1010.94
2018-03-22T12:36:52.544Z,1010.87
2018-03-22T12:37:52.503Z,1010.86
2018-03-22T12:38:52.457Z,1010.84
2018-03-22T12:39:52.412Z,1010.77
2018-03-22T12:40:52.371Z,1010.80
2018-03-22T12:41:52.321Z,1010.80
2018-03-22T12:42:52.281Z,1010.75
2018-03-22T12:43:52.234Z,1010.77
2018-03-22T12:44:52.190Z,1010.73
2018-03-22T12:45:52.148Z,1010.73
2018-03-22T12:46:52.102Z,1010.68
2018-03-22T12:47:52.057Z,1010.68
2018-03-22T12:48:52.013Z,1010.60
2018-03-22T12:49:51.973Z,1010.65
2018-03-22T12:50:51.926Z,1010.62
2018-03-22T12:51:51.881Z,1010.66
2018-03-22T12:52:51.835Z,1010.63
2018-03-22T12:53:51.792Z,1010.66
2018-03-22T12:54:51.745Z,1010.60
2018-03-22T12:55:51.704Z,1010.63
2018-03-22T12:56:51.660Z,1010.61
2018-03-22T12:57:51.615Z,1010.58
2018-03-22T12:58:51.572Z,1010.58
2018-03-22T12:59:51.526Z,1010.61
2018-03-22T13:00:51.480Z,1010.59
2018-03-22T13:01:51.435Z,1010.53
2018-03-22T13:02:51.391Z,1010.58
2018-03-22T13:03:51.347Z,1010.56
2018-03-22T13:04:51.308Z,1010.54
2018-03-22T13:05:51.257Z,1010.56
2018-03-22T13:06:51.215Z,1010.54
2018-03-22T13:07:51.173Z,1010.56
2018-03-22T13:08:51.128Z,1010.53
2018-03-22T13:09:51.079Z,1010.47
2018-03-22T13:10:51.035Z,1010.53
2018-03-22T13:11:50.990Z,1010.51
2018-03-22T13:12:50.944Z,1010.51
2018-03-22T13:13:50.901Z,1010.51
2018-03-22T13:14:50.855Z,1010.52
2018-03-22T13:15:50.810Z,1010.49
2018-03-22T13:16:50.764Z,1010.51
2018-03-22T13:17:50.721Z,1010.51
2018-03-22T13:18:50.678Z,1010.48
2018-03-22T13:19:50.631Z,1010.53
2018-03-22T13:20:50.648Z,1010.46
2018-03-22T13:21:50.543Z,1010.49